< < Back
Terminal Aerodrome Forecast


Current Version              Previous Versions:   1  2  3  4  5  6  7  8  9  

Terminal Aerodrome Forecast

033
FTUS42 KTAE 060300 AAA
TAFABY
TAF AMD
KABY 060346Z 0604/0624 35009KT P6SM SCT020 SCT080
     FM061400 02009KT P6SM BKN018
     FM061900 02008KT P6SM SCT025=



Latest METAR

954
SAUS70 KWBC 060700
MTRABY
METAR KABY 060653Z 34010KT 10SM BKN110 05/00 A3031 RMK AO2 SLP262
T00500000


USA.gov is the U.S. government's official web portal to all federal, state and local government web resources and services.